createdAt,value
2023-05-24T00:05:17.755Z,0
2023-05-24T00:11:37.801Z,0
2023-05-24T00:18:00.840Z,0
2023-05-24T00:24:20.757Z,0
2023-05-24T00:30:43.934Z,0
2023-05-24T00:37:03.899Z,0
2023-05-24T00:43:26.781Z,0
2023-05-24T00:49:47.404Z,0
2023-05-24T00:56:10.839Z,0
2023-05-24T01:02:30.982Z,0
2023-05-24T01:08:53.819Z,0
2023-05-24T01:15:13.818Z,0
2023-05-24T01:21:36.825Z,0
2023-05-24T01:27:56.816Z,0
2023-05-24T01:34:19.857Z,0
2023-05-24T01:40:39.935Z,0
2023-05-24T01:47:02.858Z,0
2023-05-24T01:53:22.840Z,0
2023-05-24T01:59:45.754Z,0
2023-05-24T02:06:05.827Z,0
2023-05-24T02:12:28.880Z,0
2023-05-24T02:18:48.877Z,0
2023-05-24T02:25:11.835Z,0
2023-05-24T02:31:31.867Z,0
2023-05-24T02:37:54.784Z,0
2023-05-24T02:44:14.826Z,0
2023-05-24T02:50:37.766Z,0
2023-05-24T02:56:57.802Z,0
2023-05-24T03:03:20.903Z,0
2023-05-24T03:09:40.838Z,0
2023-05-24T03:16:03.864Z,0
2023-05-24T03:22:23.878Z,0
2023-05-24T03:38:51.698Z,0
2023-05-24T03:45:11.741Z,0
2023-05-24T03:51:34.787Z,0
2023-05-24T03:57:54.760Z,0
2023-05-24T04:04:17.842Z,5.62
2023-05-24T04:10:37.767Z,5.62
2023-05-24T04:17:00.946Z,5.62
2023-05-24T04:23:20.878Z,5.62
2023-05-24T04:29:43.820Z,11.25
2023-05-24T04:36:03.807Z,11.25
2023-05-24T04:42:26.825Z,11.25
2023-05-24T04:48:46.752Z,11.25
2023-05-24T04:55:09.881Z,11.25
2023-05-24T05:01:29.783Z,11.25
2023-05-24T05:07:52.760Z,16.88
2023-05-24T05:14:12.894Z,16.88
2023-05-24T05:20:36.003Z,16.88
2023-05-24T05:26:55.881Z,16.88
2023-05-24T05:33:18.870Z,16.88
2023-05-24T05:39:38.753Z,22.5
2023-05-24T05:46:01.804Z,22.5
2023-05-24T05:52:21.792Z,22.5
2023-05-24T05:58:44.781Z,22.5
2023-05-24T06:05:04.803Z,22.5
2023-05-24T06:11:28.003Z,28.12
2023-05-24T06:17:47.826Z,28.12
2023-05-24T06:24:10.823Z,28.12
2023-05-24T06:30:30.860Z,33.75
2023-05-24T06:36:53.799Z,39.38
2023-05-24T06:43:13.745Z,28.12
2023-05-24T06:49:36.901Z,45
2023-05-24T06:55:57.643Z,39.38
2023-05-24T07:02:19.799Z,56.25
2023-05-24T07:08:39.772Z,67.5
2023-05-24T07:15:02.771Z,56.25
2023-05-24T07:21:22.804Z,61.88
2023-05-24T07:27:45.795Z,50.62
2023-05-24T07:34:05.831Z,50.62
2023-05-24T07:40:28.754Z,56.25
2023-05-24T07:46:48.888Z,67.5
2023-05-24T07:53:11.795Z,84.38
2023-05-24T07:59:31.733Z,90
2023-05-24T08:05:54.793Z,73.12
2023-05-24T08:12:17.040Z,67.5
2023-05-24T08:18:37.766Z,90
2023-05-24T08:24:57.880Z,78.75
2023-05-24T08:31:20.834Z,90
2023-05-24T08:37:40.752Z,67.5
2023-05-24T08:53:15.839Z,67.5
2023-05-24T08:59:35.773Z,78.75
2023-05-24T09:05:58.732Z,90
2023-05-24T09:12:25.086Z,90
2023-05-24T09:18:41.769Z,146.25
2023-05-24T09:25:01.789Z,151.88
2023-05-24T09:31:25.153Z,101.25
2023-05-24T09:37:44.730Z,50.62
2023-05-24T09:44:07.808Z,50.62
2023-05-24T09:50:27.815Z,101.25
2023-05-24T09:56:50.791Z,123.75
2023-05-24T10:03:10.807Z,73.12
2023-05-24T10:09:33.787Z,101.25
2023-05-24T10:15:53.791Z,118.12
2023-05-24T10:22:16.754Z,106.88
2023-05-24T10:28:36.768Z,180
2023-05-24T10:34:59.769Z,118.12
2023-05-24T10:41:19.734Z,95.62
2023-05-24T10:47:42.883Z,112.5
2023-05-24T10:54:02.732Z,95.62
2023-05-24T11:00:34.419Z,151.88
2023-05-24T11:06:45.918Z,101.25
2023-05-24T11:13:08.730Z,73.12
2023-05-24T11:19:28.803Z,101.25
2023-05-24T11:25:51.845Z,123.75
2023-05-24T11:32:12.095Z,118.12
2023-05-24T11:38:34.753Z,129.38
2023-05-24T11:44:54.799Z,95.62
2023-05-24T11:51:17.757Z,73.12
2023-05-24T11:57:37.734Z,101.25
2023-05-24T12:04:00.959Z,90
2023-05-24T12:10:22.882Z,78.75
2023-05-24T12:16:43.823Z,67.5
2023-05-24T12:23:03.766Z,78.75
2023-05-24T12:29:26.750Z,78.75
2023-05-24T12:35:46.785Z,73.12
2023-05-24T12:42:09.785Z,101.25
2023-05-24T12:48:29.789Z,78.75
2023-05-24T12:54:52.739Z,78.75
2023-05-24T13:01:12.826Z,90
2023-05-24T13:07:35.818Z,106.88
2023-05-24T13:13:55.752Z,106.88
2023-05-24T13:20:18.872Z,106.88
2023-05-24T13:26:38.837Z,112.5
2023-05-24T13:33:01.791Z,118.12
2023-05-24T13:39:21.799Z,90
2023-05-24T13:45:44.766Z,78.75
2023-05-24T13:52:04.782Z,78.75
2023-05-24T13:58:27.790Z,123.75
2023-05-24T14:04:47.769Z,146.25
2023-05-24T14:11:10.792Z,118.12
2023-05-24T14:26:42.796Z,118.12
2023-05-24T14:33:02.801Z,112.5
2023-05-24T14:39:25.796Z,118.12
2023-05-24T14:45:46.033Z,123.75
2023-05-24T14:52:08.740Z,174.38
2023-05-24T14:58:28.778Z,118.12
2023-05-24T15:04:51.958Z,151.88
2023-05-24T15:11:11.841Z,106.88
2023-05-24T15:17:35.061Z,101.25
2023-05-24T15:23:55.137Z,112.5
2023-05-24T15:30:17.771Z,123.75
2023-05-24T15:36:37.755Z,157.5
2023-05-24T15:43:00.847Z,247.5
2023-05-24T15:49:20.736Z,157.5
2023-05-24T15:55:43.753Z,84.38
2023-05-24T16:02:03.798Z,84.38
2023-05-24T16:08:27.033Z,140.62
2023-05-24T16:14:46.756Z,78.75
2023-05-24T16:21:09.826Z,95.62
2023-05-24T16:27:29.776Z,343.12
2023-05-24T16:33:52.772Z,151.88
2023-05-24T16:40:12.766Z,56.25
2023-05-24T16:46:35.839Z,50.62
2023-05-24T16:52:55.797Z,39.38
2023-05-24T16:59:18.836Z,28.12
2023-05-24T17:05:38.882Z,33.75
2023-05-24T17:12:01.753Z,22.5
2023-05-24T17:18:21.818Z,22.5
2023-05-24T17:24:44.826Z,22.5
2023-05-24T17:31:04.754Z,33.75
2023-05-24T17:37:27.792Z,33.75
2023-05-24T17:43:47.773Z,33.75
2023-05-24T17:50:10.776Z,39.38
2023-05-24T17:56:30.813Z,33.75
2023-05-24T18:02:53.992Z,28.12
2023-05-24T18:09:13.754Z,33.75
2023-05-24T18:15:36.834Z,33.75
2023-05-24T18:21:56.781Z,33.75
2023-05-24T18:28:19.757Z,28.12
2023-05-24T18:34:39.802Z,16.88
2023-05-24T18:41:04.906Z,16.88
2023-05-24T18:47:22.809Z,16.88
2023-05-24T18:53:45.801Z,11.25
2023-05-24T19:00:05.771Z,5.62
2023-05-24T19:06:28.792Z,5.62
2023-05-24T19:12:48.770Z,5.62
2023-05-24T19:19:11.811Z,0
2023-05-24T19:25:31.813Z,0
2023-05-24T19:31:54.793Z,0
2023-05-24T19:48:20.680Z,0
2023-05-24T19:54:40.740Z,0
2023-05-24T20:01:03.860Z,0
2023-05-24T20:07:23.813Z,0
2023-05-24T20:13:46.735Z,0
2023-05-24T20:20:06.719Z,0
2023-05-24T20:26:29.819Z,0
2023-05-24T20:32:49.788Z,0
2023-05-24T20:39:12.778Z,0
2023-05-24T20:45:32.793Z,0
2023-05-24T20:51:55.772Z,0
2023-05-24T20:58:15.738Z,0
2023-05-24T21:04:38.753Z,0
2023-05-24T21:10:58.777Z,0
2023-05-24T21:17:21.750Z,0
2023-05-24T21:23:41.858Z,0
2023-05-24T21:30:04.754Z,0
2023-05-24T21:36:24.769Z,0
2023-05-24T21:42:47.890Z,0
2023-05-24T21:49:07.778Z,0
2023-05-24T21:55:30.753Z,0
2023-05-24T22:21:02.752Z,0
2023-05-24T22:27:22.732Z,0
2023-05-24T22:33:45.729Z,0
2023-05-24T22:40:05.864Z,0
2023-05-24T22:46:28.737Z,0
2023-05-24T22:52:48.764Z,0
2023-05-24T22:59:11.784Z,0
2023-05-24T23:05:31.812Z,0
2023-05-24T23:11:54.770Z,0
2023-05-24T23:18:14.908Z,0
2023-05-24T23:24:37.739Z,0
2023-05-24T23:30:57.830Z,0
2023-05-24T23:37:20.792Z,0
2023-05-24T23:43:40.815Z,0
2023-05-24T23:50:03.761Z,0
2023-05-24T23:56:23.892Z,0
